Overview Statistics Trail Chart Weather Telemetry Raw packets
 

This is the latest recevied weather packets stored in our database for station/object DB7GV-8. If no packets are shown the sender has not sent any weather packets the latest 10 day(s).

<< 1 2 3 4 5 >>
Time Temp. Humidity Pressure Rain* Wind** Luminosity Snow
1777720361 27.22° C 27% 1021.4 hPa - - - -
1777719456 27.22° C 28% 1021.6 hPa - - - -
1777718549 27.22° C 28% 1021.7 hPa - - - -
1777717644 27.22° C 28% 1021.9 hPa - - - -
1777716739 26.11° C 28% 1022.2 hPa - - - -
1777715834 26.11° C 28% 1022.4 hPa - - - -
1777714928 26.11° C 28% 1022.6 hPa - - - -
1777714023 25° C 29% 1022.8 hPa - - - -
1777713118 25° C 29% 1022.9 hPa - - - -
1777712212 25° C 29% 1022.9 hPa - - - -
1777709496 28.33° C 20% 1023.1 hPa - - - -
1777708591 39.44° C 15% 1023.4 hPa - - - -
1777707685 39.44° C 16% 1023.5 hPa - - - -
1777706780 33.89° C 21% 1023.6 hPa - - - -
1777705874 32.22° C 24% 1023.7 hPa - - - -
1777704968 29.44° C 28% 1023.7 hPa - - - -
1777704063 18.33° C 43% 1023.7 hPa - - - -
1777703158 15° C 61% 1023.9 hPa - - - -
1777702252 8.89° C 70% 1023.8 hPa - - - -
1777701347 8.33° C 71% 1023.9 hPa - - - -
1777700441 7.78° C 72% 1024 hPa - - - -
1777699536 7.22° C 73% 1024 hPa - - - -
1777698631 6.67° C 74% 1024 hPa - - - -
1777697725 6.11° C 75% 1023.9 hPa - - - -
1777696820 5.56° C 75% 1023.8 hPa - - - -

* Rain since midnight (hover to see other rain measurements)
** Current wind speed in m/s (hover to see current wind gust speed)